createdAt,value
2022-08-31T00:00:25.460Z,18.93
2022-08-31T00:03:11.010Z,20.37
2022-08-31T00:05:39.271Z,18.63
2022-08-31T00:08:07.664Z,18.63
2022-08-31T00:10:36.862Z,22.97
2022-08-31T00:13:06.857Z,19.47
2022-08-31T00:15:36.745Z,19.40
2022-08-31T00:18:07.131Z,20.67
2022-08-31T00:20:35.340Z,19.33
2022-08-31T00:23:03.818Z,19.03
2022-08-31T00:25:33.754Z,18.63
2022-08-31T00:28:01.712Z,18.33
2022-08-31T00:30:30.291Z,18.73
2022-08-31T00:32:59.630Z,18.77
2022-08-31T00:35:27.697Z,19.20
2022-08-31T00:37:55.674Z,18.37
2022-08-31T00:40:23.961Z,19.30
2022-08-31T00:42:51.895Z,18.13
2022-08-31T00:45:20.244Z,17.50
2022-08-31T00:47:48.376Z,16.70
2022-08-31T00:50:19.521Z,17.03
2022-08-31T00:52:51.085Z,17.47
2022-08-31T00:55:21.919Z,17.67
2022-08-31T00:57:54.115Z,16.80
2022-08-31T01:00:25.389Z,17.87
2022-08-31T01:02:53.776Z,17.90
2022-08-31T01:05:23.381Z,18.67
2022-08-31T01:07:52.954Z,18.67
2022-08-31T01:10:23.416Z,19.67
2022-08-31T01:12:54.379Z,19.40
2022-08-31T01:15:24.915Z,19.47
2022-08-31T01:17:55.641Z,19.80
2022-08-31T01:20:30.240Z,20.47
2022-08-31T01:23:12.360Z,20.23
2022-08-31T01:25:43.888Z,19.27
2022-08-31T01:28:12.613Z,19.53
2022-08-31T01:30:41.216Z,19.67
2022-08-31T01:33:09.355Z,21.30
2022-08-31T01:35:37.461Z,19.80
2022-08-31T01:38:05.820Z,20.20
2022-08-31T01:40:38.162Z,19.17
2022-08-31T01:43:06.238Z,20.27
2022-08-31T01:45:34.156Z,18.97
2022-08-31T01:48:02.067Z,19.27
2022-08-31T01:50:29.981Z,18.17
2022-08-31T01:52:57.965Z,18.37
2022-08-31T01:55:25.919Z,18.47
2022-08-31T01:57:55.191Z,16.17
2022-08-31T02:00:23.776Z,15.87
2022-08-31T02:02:51.742Z,15.37
2022-08-31T02:05:19.677Z,15.77
2022-08-31T02:07:48.138Z,16.50
2022-08-31T02:10:16.156Z,16.33
2022-08-31T02:12:44.498Z,17.27
2022-08-31T02:15:14.073Z,16.43
2022-08-31T02:17:42.116Z,16.63
2022-08-31T02:20:12.062Z,16.30
2022-08-31T02:22:40.163Z,15.80
2022-08-31T02:25:09.403Z,16.13
2022-08-31T02:27:38.124Z,16.37
2022-08-31T02:30:07.362Z,16.63
2022-08-31T02:32:36.682Z,16.87
2022-08-31T02:35:05.066Z,16.90
2022-08-31T02:37:33.044Z,16.63
2022-08-31T02:40:03.517Z,16.77
2022-08-31T02:42:52.675Z,17.13
2022-08-31T02:45:20.996Z,17.33
2022-08-31T02:47:50.367Z,17.43
2022-08-31T02:50:18.367Z,17.53
2022-08-31T02:52:47.277Z,17.50
2022-08-31T02:55:15.739Z,18.07
2022-08-31T02:57:43.655Z,17.90
2022-08-31T03:00:13.075Z,19.37
2022-08-31T03:02:41.539Z,19.67
2022-08-31T03:05:12.823Z,19.73
2022-08-31T03:07:41.532Z,19.63
2022-08-31T03:10:14.062Z,20.47
2022-08-31T03:12:42.248Z,21.23
2022-08-31T03:15:12.089Z,21.23
2022-08-31T03:17:40.026Z,21.13
2022-08-31T03:20:10.862Z,20.43
2022-08-31T03:22:39.038Z,21.00
2022-08-31T03:25:10.254Z,20.40
2022-08-31T03:27:38.559Z,22.03
2022-08-31T03:30:09.542Z,21.30
2022-08-31T03:32:37.510Z,22.83
2022-08-31T03:35:06.268Z,23.30
2022-08-31T03:37:35.813Z,22.70
2022-08-31T03:40:04.781Z,22.17
2022-08-31T03:42:32.768Z,21.97
2022-08-31T03:45:00.716Z,21.73
2022-08-31T03:47:29.029Z,22.00
2022-08-31T03:49:58.983Z,22.73
2022-08-31T03:52:27.311Z,23.17
2022-08-31T03:54:56.659Z,24.63
2022-08-31T03:57:24.591Z,23.17
2022-08-31T03:59:54.361Z,21.90
2022-08-31T04:02:24.044Z,21.23
2022-08-31T04:04:52.653Z,20.87
2022-08-31T04:07:20.714Z,19.73
2022-08-31T04:09:50.307Z,21.53
2022-08-31T04:12:20.173Z,23.60
2022-08-31T04:14:48.152Z,22.30
2022-08-31T04:17:16.140Z,23.17
2022-08-31T04:19:44.072Z,22.77
2022-08-31T04:22:11.966Z,23.33
2022-08-31T04:24:39.964Z,22.43
2022-08-31T04:27:07.858Z,23.30
2022-08-31T04:29:37.211Z,23.23
2022-08-31T04:32:05.309Z,24.37
2022-08-31T04:34:33.224Z,24.10
2022-08-31T04:37:01.212Z,24.00
2022-08-31T04:39:32.788Z,23.37
2022-08-31T04:42:01.132Z,22.97
2022-08-31T04:44:29.060Z,23.63
2022-08-31T04:46:58.388Z,25.10
2022-08-31T04:49:26.441Z,24.50
2022-08-31T04:51:54.357Z,24.93
2022-08-31T04:54:22.495Z,25.37
2022-08-31T04:56:50.418Z,24.90
2022-08-31T04:59:19.107Z,26.23
2022-08-31T05:01:47.641Z,25.13
2022-08-31T05:04:17.306Z,28.43
2022-08-31T05:06:47.655Z,25.57
2022-08-31T05:09:18.340Z,24.67
2022-08-31T05:11:46.884Z,25.07
2022-08-31T05:14:14.994Z,25.08
2022-08-31T05:16:43.750Z,22.45
2022-08-31T05:19:11.872Z,22.02
2022-08-31T05:21:43.137Z,23.25
2022-08-31T05:24:13.775Z,23.55
2022-08-31T05:26:45.204Z,20.10
2022-08-31T05:29:15.317Z,20.02
2022-08-31T05:31:49.056Z,19.20
2022-08-31T05:34:21.110Z,19.58
2022-08-31T05:36:53.531Z,19.05
2022-08-31T05:39:21.666Z,19.83
2022-08-31T05:41:50.030Z,20.20
2022-08-31T05:44:21.232Z,21.08
2022-08-31T05:46:52.274Z,21.50
2022-08-31T05:49:28.843Z,19.58
2022-08-31T05:51:59.075Z,18.77
2022-08-31T05:54:27.147Z,19.70
2022-08-31T05:56:55.083Z,20.38
2022-08-31T05:59:29.905Z,19.40
2022-08-31T06:01:58.130Z,20.65
2022-08-31T06:04:26.443Z,22.30
2022-08-31T06:06:54.431Z,21.00
2022-08-31T06:09:23.809Z,20.70
2022-08-31T06:11:52.319Z,21.67
2022-08-31T06:14:23.694Z,20.30
2022-08-31T06:16:51.807Z,19.95
2022-08-31T06:19:20.647Z,21.27
2022-08-31T06:21:51.477Z,20.40
2022-08-31T06:24:20.337Z,20.67
2022-08-31T06:26:56.811Z,21.23
2022-08-31T06:29:25.836Z,20.23
2022-08-31T06:31:54.223Z,20.80
2022-08-31T06:34:23.478Z,19.95
2022-08-31T06:36:53.412Z,20.02
2022-08-31T06:39:21.434Z,20.63
2022-08-31T06:41:52.679Z,19.58
2022-08-31T06:44:22.315Z,17.75
2022-08-31T06:46:50.299Z,19.05
2022-08-31T06:49:19.243Z,18.50
2022-08-31T06:51:47.252Z,18.77
2022-08-31T06:54:29.062Z,19.05
2022-08-31T06:57:02.814Z,17.80
2022-08-31T06:59:30.896Z,19.23
2022-08-31T07:01:59.818Z,17.45
2022-08-31T07:04:28.641Z,18.95
2022-08-31T07:06:56.550Z,19.05
2022-08-31T07:09:25.122Z,17.30
2022-08-31T07:11:53.630Z,17.35
2022-08-31T07:14:26.355Z,15.77
2022-08-31T07:16:56.634Z,15.48
2022-08-31T07:19:25.496Z,16.23
2022-08-31T07:21:55.282Z,15.95
2022-08-31T07:24:25.667Z,14.77
2022-08-31T07:26:58.019Z,14.23
2022-08-31T07:29:33.048Z,15.65
2022-08-31T07:32:01.187Z,15.48
2022-08-31T07:34:32.004Z,14.98
2022-08-31T07:37:18.604Z,13.55
2022-08-31T07:40:07.811Z,13.13
2022-08-31T07:42:38.807Z,12.52
2022-08-31T07:45:12.759Z,12.50
2022-08-31T07:47:47.102Z,11.98
2022-08-31T07:50:16.460Z,11.50
2022-08-31T07:52:47.772Z,11.88
2022-08-31T07:55:17.956Z,11.50
2022-08-31T07:57:46.439Z,12.32
2022-08-31T08:00:21.053Z,11.88
2022-08-31T08:02:53.129Z,12.20
2022-08-31T08:05:23.570Z,12.50
2022-08-31T08:07:58.944Z,11.43
2022-08-31T08:10:27.659Z,12.35
2022-08-31T08:13:05.207Z,11.80
2022-08-31T08:15:37.300Z,11.75
2022-08-31T08:18:10.941Z,12.18
2022-08-31T08:20:39.945Z,13.02
2022-08-31T08:23:13.931Z,12.27
2022-08-31T08:25:43.253Z,11.18
2022-08-31T08:28:38.039Z,10.02
2022-08-31T08:31:07.883Z,11.43
2022-08-31T08:33:37.484Z,11.18
2022-08-31T08:36:08.795Z,11.82
2022-08-31T08:38:39.454Z,11.40
2022-08-31T08:41:13.425Z,10.95
2022-08-31T08:43:44.119Z,10.05
2022-08-31T08:46:34.503Z,11.10
2022-08-31T08:49:15.084Z,10.52
2022-08-31T08:51:44.899Z,11.38
2022-08-31T08:54:16.219Z,10.60
2022-08-31T08:56:49.015Z,10.40
2022-08-31T08:59:20.009Z,11.02
2022-08-31T09:01:54.203Z,10.90
2022-08-31T09:04:40.324Z,10.50
2022-08-31T09:07:27.164Z,10.88
2022-08-31T09:10:02.126Z,10.85
2022-08-31T09:12:44.831Z,10.93
2022-08-31T09:15:36.309Z,11.85
2022-08-31T09:18:21.183Z,10.90
2022-08-31T09:21:02.695Z,9.95
2022-08-31T09:23:35.008Z,11.00
2022-08-31T09:26:08.200Z,9.68
2022-08-31T09:28:43.589Z,9.98
2022-08-31T09:31:34.728Z,10.25
2022-08-31T09:34:06.817Z,11.10
2022-08-31T09:36:41.137Z,10.43
2022-08-31T09:39:18.441Z,11.15
2022-08-31T09:41:47.929Z,10.75
2022-08-31T09:44:23.559Z,10.82
2022-08-31T09:46:54.409Z,10.38
2022-08-31T09:49:27.082Z,10.85
2022-08-31T09:52:20.956Z,10.93
2022-08-31T09:55:13.314Z,10.35
2022-08-31T09:57:54.219Z,10.45
2022-08-31T10:00:34.402Z,10.63
2022-08-31T10:03:12.179Z,10.00
2022-08-31T10:05:44.451Z,10.45
2022-08-31T10:08:28.168Z,10.45
2022-08-31T10:10:58.599Z,11.00
2022-08-31T10:13:39.311Z,10.77
2022-08-31T10:16:18.352Z,14.85
2022-08-31T10:18:56.741Z,9.88
2022-08-31T10:21:35.336Z,10.52
2022-08-31T10:24:20.551Z,10.48
2022-08-31T10:26:53.447Z,10.15
2022-08-31T10:29:35.446Z,10.43
2022-08-31T10:32:23.794Z,10.80
2022-08-31T10:35:05.960Z,10.88
2022-08-31T10:37:57.943Z,11.20
2022-08-31T10:40:32.137Z,11.02
2022-08-31T10:43:11.337Z,10.40
2022-08-31T10:45:43.837Z,10.77
2022-08-31T10:48:13.094Z,11.07
2022-08-31T10:50:49.704Z,11.35
2022-08-31T10:53:34.593Z,10.65
2022-08-31T10:56:14.475Z,10.00
2022-08-31T10:59:03.476Z,11.07
2022-08-31T11:01:42.582Z,10.10
2022-08-31T11:04:47.226Z,13.15
2022-08-31T11:07:28.281Z,11.65
2022-08-31T11:10:11.240Z,11.50
2022-08-31T11:12:43.326Z,12.48
2022-08-31T11:15:31.065Z,12.38
2022-08-31T11:18:36.282Z,12.63
2022-08-31T11:21:39.718Z,13.32
2022-08-31T11:24:36.963Z,13.45
2022-08-31T11:27:14.442Z,13.52
2022-08-31T11:29:47.488Z,14.10
2022-08-31T11:32:24.481Z,13.95
2022-08-31T11:34:55.312Z,14.32
2022-08-31T11:38:05.818Z,14.27
2022-08-31T11:41:05.664Z,14.05
2022-08-31T11:43:52.334Z,14.25
2022-08-31T11:46:59.815Z,13.93
2022-08-31T11:49:55.848Z,13.65
2022-08-31T11:52:38.535Z,14.48
2022-08-31T11:55:25.453Z,13.93
2022-08-31T11:58:29.023Z,13.98
2022-08-31T12:01:03.948Z,12.93
2022-08-31T12:03:50.724Z,13.30
2022-08-31T12:07:04.656Z,12.45
2022-08-31T12:09:59.668Z,13.07
2022-08-31T12:12:51.965Z,12.10
2022-08-31T12:15:27.084Z,12.68
2022-08-31T12:18:12.435Z,12.27
2022-08-31T12:21:13.228Z,12.45
2022-08-31T12:23:56.005Z,12.20
2022-08-31T12:26:44.914Z,11.45
2022-08-31T12:29:24.233Z,12.52
2022-08-31T12:32:13.785Z,12.55
2022-08-31T12:34:48.467Z,14.35
2022-08-31T12:37:22.335Z,13.20
2022-08-31T12:39:50.589Z,11.98
2022-08-31T12:42:19.266Z,12.27
2022-08-31T12:44:52.504Z,12.23
2022-08-31T12:47:28.448Z,11.10
2022-08-31T12:50:18.113Z,9.93
2022-08-31T12:53:21.211Z,9.95
2022-08-31T12:55:58.003Z,10.50
2022-08-31T12:58:56.422Z,9.93
2022-08-31T13:01:27.661Z,9.63
2022-08-31T13:03:59.576Z,9.27
2022-08-31T13:06:31.654Z,9.75
2022-08-31T13:09:01.361Z,9.07
2022-08-31T13:11:40.778Z,8.95
2022-08-31T13:14:14.048Z,9.32
2022-08-31T13:16:46.987Z,9.93
2022-08-31T13:19:25.819Z,9.95
2022-08-31T13:21:58.134Z,9.70
2022-08-31T13:24:30.960Z,8.63
2022-08-31T13:27:11.729Z,9.40
2022-08-31T13:29:45.454Z,9.50
2022-08-31T13:32:15.977Z,10.00
2022-08-31T13:34:44.228Z,9.50
2022-08-31T13:37:21.649Z,9.98
2022-08-31T13:39:49.710Z,9.77
2022-08-31T13:42:32.966Z,10.13
2022-08-31T13:45:03.690Z,9.93
2022-08-31T13:47:41.733Z,9.35
2022-08-31T13:50:21.923Z,10.23
2022-08-31T13:53:16.155Z,9.77
2022-08-31T13:55:43.744Z,10.63
2022-08-31T13:58:29.020Z,11.40
2022-08-31T14:01:23.005Z,10.32
2022-08-31T14:03:53.531Z,10.70
2022-08-31T14:06:24.935Z,10.77
2022-08-31T14:09:00.275Z,11.82
2022-08-31T14:11:29.090Z,11.65
2022-08-31T14:14:06.108Z,10.52
2022-08-31T14:16:36.578Z,11.20
2022-08-31T14:19:04.750Z,10.98
2022-08-31T14:21:35.096Z,10.45
2022-08-31T14:24:07.792Z,11.20
2022-08-31T14:26:37.436Z,11.23
2022-08-31T14:29:10.477Z,11.43
2022-08-31T14:31:44.451Z,11.13
2022-08-31T14:34:23.133Z,11.80
2022-08-31T14:36:55.382Z,11.90
2022-08-31T14:39:29.928Z,10.90
2022-08-31T14:42:00.110Z,10.50
2022-08-31T14:44:31.588Z,10.77
2022-08-31T14:46:59.743Z,10.65
2022-08-31T14:49:31.605Z,9.60
2022-08-31T14:52:06.515Z,10.45
2022-08-31T14:54:37.550Z,10.00
2022-08-31T14:57:09.682Z,9.55
2022-08-31T14:59:39.755Z,8.50
2022-08-31T15:02:10.154Z,9.63
2022-08-31T15:04:45.523Z,8.63
2022-08-31T15:07:14.716Z,9.77
2022-08-31T15:09:46.773Z,9.52
2022-08-31T15:12:16.068Z,9.73
2022-08-31T15:14:45.169Z,9.82
2022-08-31T15:17:18.920Z,10.40
2022-08-31T15:19:50.403Z,11.05
2022-08-31T15:22:19.261Z,11.43
2022-08-31T15:24:50.090Z,11.38
2022-08-31T15:27:18.196Z,11.95
2022-08-31T15:29:49.512Z,14.93
2022-08-31T15:32:18.710Z,12.32
2022-08-31T15:34:53.436Z,12.32
2022-08-31T15:37:22.103Z,11.80
2022-08-31T15:39:51.400Z,12.20
2022-08-31T15:42:21.354Z,11.25
2022-08-31T15:44:56.044Z,11.45
2022-08-31T15:47:44.134Z,11.23
2022-08-31T15:50:12.238Z,11.23
2022-08-31T15:52:51.867Z,11.25
2022-08-31T15:55:26.474Z,10.98
2022-08-31T15:57:55.321Z,10.75
2022-08-31T16:00:25.922Z,12.23
2022-08-31T16:02:55.252Z,10.50
2022-08-31T16:05:23.428Z,10.25
2022-08-31T16:07:53.181Z,10.85
2022-08-31T16:10:23.520Z,10.73
2022-08-31T16:12:52.742Z,10.45
2022-08-31T16:15:24.574Z,11.10
2022-08-31T16:17:57.662Z,10.85
2022-08-31T16:20:29.342Z,11.23
2022-08-31T16:22:58.769Z,10.68
2022-08-31T16:25:47.654Z,10.18
2022-08-31T16:28:17.159Z,11.00
2022-08-31T16:30:45.459Z,10.82
2022-08-31T16:33:13.384Z,10.95
2022-08-31T16:35:41.326Z,9.82
2022-08-31T16:38:09.248Z,10.23
2022-08-31T16:40:38.549Z,10.02
2022-08-31T16:43:06.520Z,11.05
2022-08-31T16:45:34.556Z,11.50
2022-08-31T16:48:16.505Z,10.52
2022-08-31T16:50:45.324Z,11.85
2022-08-31T16:53:17.991Z,11.18
2022-08-31T16:55:48.427Z,11.18
2022-08-31T16:58:34.540Z,11.73
2022-08-31T17:01:11.940Z,12.25
2022-08-31T17:03:40.905Z,11.95
2022-08-31T17:06:09.465Z,12.13
2022-08-31T17:08:41.288Z,12.77
2022-08-31T17:11:23.635Z,11.90
2022-08-31T17:13:58.276Z,13.18
2022-08-31T17:16:28.724Z,14.90
2022-08-31T17:18:58.289Z,14.25
2022-08-31T17:21:29.175Z,14.30
2022-08-31T17:23:59.378Z,15.43
2022-08-31T17:26:32.013Z,13.18
2022-08-31T17:29:02.401Z,13.77
2022-08-31T17:31:32.618Z,12.55
2022-08-31T17:34:01.765Z,13.95
2022-08-31T17:36:37.261Z,14.07
2022-08-31T17:39:06.385Z,13.27
2022-08-31T17:41:35.927Z,13.50
2022-08-31T17:44:04.983Z,13.80
2022-08-31T17:46:33.027Z,12.75
2022-08-31T17:49:01.268Z,13.73
2022-08-31T17:51:31.483Z,13.60
2022-08-31T17:54:02.335Z,13.65
2022-08-31T17:56:36.436Z,14.10
2022-08-31T17:59:04.364Z,14.30
2022-08-31T18:01:33.687Z,19.23
2022-08-31T18:04:02.595Z,16.42
2022-08-31T18:06:31.168Z,14.50
2022-08-31T18:08:59.972Z,14.93
2022-08-31T18:11:29.200Z,15.55
2022-08-31T18:13:58.576Z,14.77
2022-08-31T18:16:26.671Z,14.82
2022-08-31T18:18:54.863Z,15.57
2022-08-31T18:21:25.391Z,16.10
2022-08-31T18:23:54.554Z,15.23
2022-08-31T18:26:26.149Z,15.60
2022-08-31T18:28:55.000Z,14.70
2022-08-31T18:31:30.193Z,15.90
2022-08-31T18:33:58.292Z,14.83
2022-08-31T18:36:27.229Z,15.82
2022-08-31T18:38:57.378Z,15.88
2022-08-31T18:41:45.977Z,15.23
2022-08-31T18:44:32.129Z,15.50
2022-08-31T18:47:03.160Z,14.10
2022-08-31T18:49:34.611Z,20.05
2022-08-31T18:52:02.846Z,14.87
2022-08-31T18:54:32.096Z,15.50
2022-08-31T18:57:00.687Z,14.13
2022-08-31T18:59:29.247Z,13.73
2022-08-31T19:01:57.710Z,15.10
2022-08-31T19:04:27.349Z,14.00
2022-08-31T19:06:55.631Z,15.70
2022-08-31T19:09:24.206Z,14.30
2022-08-31T19:11:53.146Z,14.50
2022-08-31T19:14:23.036Z,13.73
2022-08-31T19:17:01.062Z,15.07
2022-08-31T19:19:33.470Z,14.77
2022-08-31T19:22:01.702Z,14.00
2022-08-31T19:24:29.593Z,14.53
2022-08-31T19:26:59.218Z,13.67
2022-08-31T19:29:29.858Z,14.47
2022-08-31T19:32:02.426Z,14.93
2022-08-31T19:34:33.142Z,14.63
2022-08-31T19:37:02.168Z,15.17
2022-08-31T19:39:37.019Z,14.73
2022-08-31T19:42:07.653Z,15.03
2022-08-31T19:47:25.855Z,15.40
2022-08-31T19:49:55.217Z,13.90
2022-08-31T19:52:24.415Z,14.90
2022-08-31T19:54:52.320Z,14.03
2022-08-31T19:57:21.481Z,14.73
2022-08-31T19:59:49.772Z,15.63
2022-08-31T20:02:18.562Z,16.00
2022-08-31T20:04:46.736Z,16.23
2022-08-31T20:07:16.754Z,16.47
2022-08-31T20:09:44.647Z,16.40
2022-08-31T20:12:12.584Z,15.70
2022-08-31T20:14:40.598Z,15.57
2022-08-31T20:17:09.805Z,15.73
2022-08-31T20:19:39.475Z,15.53
2022-08-31T20:22:08.234Z,15.17
2022-08-31T20:24:43.681Z,14.50
2022-08-31T20:27:15.893Z,13.03
2022-08-31T20:29:43.920Z,13.53
2022-08-31T20:32:11.829Z,14.00
2022-08-31T20:34:39.723Z,14.50
2022-08-31T20:37:08.594Z,31.63
2022-08-31T20:39:39.328Z,21.07
2022-08-31T20:42:07.888Z,17.80
2022-08-31T20:44:38.372Z,15.87
2022-08-31T20:47:26.036Z,16.00
2022-08-31T20:49:55.913Z,15.10
2022-08-31T20:52:25.413Z,15.23
2022-08-31T20:55:01.310Z,14.83
2022-08-31T20:57:31.773Z,14.67
2022-08-31T21:00:00.982Z,14.50
2022-08-31T21:02:31.667Z,14.43
2022-08-31T21:05:15.252Z,14.60
2022-08-31T21:07:48.353Z,13.87
2022-08-31T21:10:19.012Z,13.77
2022-08-31T21:12:50.426Z,15.43
2022-08-31T21:15:22.304Z,14.17
2022-08-31T21:17:56.812Z,15.27
2022-08-31T21:20:25.535Z,14.37
2022-08-31T21:22:54.169Z,14.47
2022-08-31T21:25:23.432Z,14.77
2022-08-31T21:27:52.913Z,14.40
2022-08-31T21:30:20.887Z,14.50
2022-08-31T21:32:48.769Z,14.77
2022-08-31T21:35:16.820Z,13.93
2022-08-31T21:37:45.066Z,13.67
2022-08-31T21:40:13.333Z,14.07
2022-08-31T21:42:42.617Z,14.37
2022-08-31T21:45:11.151Z,13.50
2022-08-31T21:47:39.102Z,13.63
2022-08-31T21:50:08.128Z,14.30
2022-08-31T21:52:36.068Z,13.73
2022-08-31T21:55:05.734Z,13.70
2022-08-31T21:57:33.652Z,13.77
2022-08-31T22:00:04.586Z,14.10
2022-08-31T22:02:32.518Z,13.47
2022-08-31T22:05:00.560Z,14.03
2022-08-31T22:07:28.487Z,14.07
2022-08-31T22:09:56.750Z,13.43
2022-08-31T22:12:25.332Z,13.47
2022-08-31T22:14:53.448Z,13.30
2022-08-31T22:17:37.110Z,12.97
2022-08-31T22:20:19.904Z,14.53
2022-08-31T22:22:47.862Z,14.13
2022-08-31T22:25:16.243Z,15.83
2022-08-31T22:27:44.152Z,15.57
2022-08-31T22:30:13.473Z,15.43
2022-08-31T22:32:44.466Z,16.07
2022-08-31T22:35:12.577Z,14.77
2022-08-31T22:37:40.472Z,16.00
2022-08-31T22:40:18.636Z,15.93
2022-08-31T22:42:48.735Z,15.63
2022-08-31T22:45:17.000Z,15.20
2022-08-31T22:47:50.010Z,14.90
2022-08-31T22:50:18.368Z,15.30
2022-08-31T22:52:46.619Z,16.30
2022-08-31T22:55:14.525Z,16.43
2022-08-31T22:57:42.425Z,16.63
2022-08-31T23:00:13.195Z,16.47
2022-08-31T23:02:44.890Z,16.50
2022-08-31T23:05:16.156Z,16.63
2022-08-31T23:07:44.361Z,16.83
2022-08-31T23:10:18.529Z,17.13
2022-08-31T23:12:47.687Z,17.53
2022-08-31T23:15:15.991Z,17.73
2022-08-31T23:17:46.097Z,16.63
2022-08-31T23:20:19.848Z,16.77
2022-08-31T23:22:48.752Z,16.17
2022-08-31T23:25:18.304Z,16.40
2022-08-31T23:27:46.560Z,16.03
2022-08-31T23:30:16.843Z,16.20
2022-08-31T23:32:44.904Z,15.60
2022-08-31T23:35:18.579Z,16.30
2022-08-31T23:37:48.883Z,17.07
2022-08-31T23:40:17.096Z,17.07
2022-08-31T23:42:45.064Z,16.07
2022-08-31T23:45:13.097Z,16.90
2022-08-31T23:47:41.209Z,17.10
2022-08-31T23:50:10.143Z,17.10
2022-08-31T23:52:41.628Z,15.83
2022-08-31T23:55:11.272Z,15.57
2022-08-31T23:57:41.848Z,15.33
